Time;durP1;ratioP1;P1;durP2;ratioP2;P2;SDS_P1;SDS_P2;PMS_P1;PMS_P2;Temp;Humidity;BMP_temperature;BMP_pressure;BME280_temperature;BME280_humidity;BME280_pressure;Samples;Min_cycle;Max_cycle;Signal;HPM_P1;HPM_P2
2022/04/08 00:00:00;;;;;;;7.60;1.08;;;6.50;99.90;;;;;;5137842;27;20038;-73
2022/04/08 00:02:26;;;;;;;5.95;0.93;;;6.50;99.90;;;;;;5156001;27;20038;-73
2022/04/08 00:04:51;;;;;;;10.80;1.30;;;6.40;99.90;;;;;;5137136;27;20053;-73
2022/04/08 00:07:17;;;;;;;5.50;1.20;;;6.40;99.90;;;;;;5137341;27;20049;-73
2022/04/08 00:09:42;;;;;;;4.90;1.05;;;6.40;99.90;;;;;;5155372;27;20041;-73
2022/04/08 00:12:09;;;;;;;7.35;1.15;;;6.40;99.90;;;;;;5137615;27;20061;-73
2022/04/08 00:14:35;;;;;;;9.60;1.40;;;6.40;99.90;;;;;;5155343;27;20458;-73
2022/04/08 00:17:02;;;;;;;10.43;1.10;;;6.40;99.90;;;;;;5137285;27;20107;-74
2022/04/08 00:19:28;;;;;;;7.25;1.10;;;6.30;99.90;;;;;;5155824;27;20119;-73
2022/04/08 00:21:53;;;;;;;4.30;0.98;;;6.30;99.90;;;;;;5155087;27;20046;-73
2022/04/08 00:24:19;;;;;;;6.00;1.25;;;6.30;99.90;;;;;;5137089;27;20050;-73
2022/04/08 00:26:46;;;;;;;5.32;1.17;;;6.30;99.90;;;;;;5155099;27;20473;-73
2022/04/08 00:29:13;;;;;;;3.13;0.63;;;6.30;99.90;;;;;;5120037;27;20042;-73
2022/04/08 00:31:39;;;;;;;2.50;0.50;;;6.30;99.90;;;;;;5155072;27;20122;-73
2022/04/08 00:34:04;;;;;;;4.22;0.68;;;6.20;99.90;;;;;;5136729;27;20489;-73
2022/04/08 00:36:30;;;;;;;2.45;0.50;;;6.10;99.90;;;;;;5136695;27;20035;-73
2022/04/08 00:38:56;;;;;;;2.97;0.60;;;6.00;99.90;;;;;;5154979;27;20082;-73
2022/04/08 00:41:21;;;;;;;5.00;0.90;;;6.00;99.90;;;;;;5155280;27;20046;-73
2022/04/08 00:43:47;;;;;;;3.90;0.70;;;6.00;99.90;;;;;;5154770;27;20558;-73
2022/04/08 00:46:13;;;;;;;7.80;0.90;;;5.90;99.90;;;;;;5136634;27;20046;-73
2022/04/08 00:48:38;;;;;;;6.22;1.08;;;5.90;99.90;;;;;;5136463;27;20090;-73
2022/04/08 00:51:07;;;;;;;5.97;0.80;;;5.90;99.90;;;;;;5155039;27;20129;-74
2022/04/08 00:53:34;;;;;;;5.70;0.90;;;5.80;99.90;;;;;;5136577;27;20377;-73
2022/04/08 00:56:00;;;;;;;5.57;0.90;;;5.80;99.90;;;;;;5154456;27;20035;-73
2022/04/08 00:58:26;;;;;;;4.65;0.82;;;5.80;99.90;;;;;;5136147;27;20046;-73
2022/04/08 01:00:51;;;;;;;6.90;1.02;;;5.80;99.90;;;;;;5135950;27;20035;-73
2022/04/08 01:03:17;;;;;;;8.38;1.00;;;5.80;99.90;;;;;;5102535;27;20042;-73
2022/04/08 01:05:43;;;;;;;4.53;1.00;;;5.70;99.90;;;;;;5154083;27;20030;-73
2022/04/08 01:08:10;;;;;;;7.85;1.00;;;5.70;99.90;;;;;;5154666;27;20122;-73
2022/04/08 01:10:36;;;;;;;3.00;0.90;;;5.70;99.90;;;;;;5119341;27;20127;-74
2022/04/08 01:13:02;;;;;;;3.58;0.75;;;5.60;99.90;;;;;;5135669;27;20466;-74
2022/04/08 01:15:28;;;;;;;6.63;1.13;;;5.60;99.90;;;;;;5154642;27;20045;-73
2022/04/08 01:17:54;;;;;;;5.28;0.95;;;5.50;99.90;;;;;;5135643;27;20034;-73
2022/04/08 01:20:19;;;;;;;7.00;1.10;;;5.50;99.90;;;;;;5154965;27;20117;-73
2022/04/08 01:22:45;;;;;;;5.28;1.20;;;5.40;99.90;;;;;;5135709;27;20046;-73
2022/04/08 01:25:11;;;;;;;6.70;1.00;;;5.40;99.90;;;;;;5136110;27;20038;-73
2022/04/08 01:27:37;;;;;;;6.60;0.82;;;5.40;99.90;;;;;;5154448;27;20037;-73
2022/04/08 01:30:12;;;;;;;8.98;1.40;;;5.40;99.90;;;;;;5154024;27;20363;-73
2022/04/08 01:32:38;;;;;;;5.85;1.25;;;5.40;99.90;;;;;;5136297;27;20043;-73
2022/04/08 01:35:04;;;;;;;5.57;1.10;;;5.40;99.90;;;;;;5154014;27;20389;-73
2022/04/08 01:37:30;;;;;;;7.93;1.05;;;5.30;99.90;;;;;;5153968;27;20051;-73
2022/04/08 01:39:56;;;;;;;8.40;1.17;;;5.40;99.90;;;;;;5153815;27;20047;-73
2022/04/08 01:42:24;;;;;;;6.75;1.30;;;5.30;99.90;;;;;;5118929;27;20066;-73
2022/04/08 01:44:51;;;;;;;6.43;1.40;;;5.40;99.90;;;;;;5153841;27;20392;-73
2022/04/08 01:47:16;;;;;;;7.15;1.40;;;5.40;99.90;;;;;;5118781;27;20035;-73
2022/04/08 01:49:42;;;;;;;5.97;1.13;;;5.30;99.90;;;;;;5154429;27;20041;-73
2022/04/08 01:52:08;;;;;;;5.03;1.08;;;5.40;99.90;;;;;;5118468;27;20035;-73
2022/04/08 01:54:33;;;;;;;6.28;1.15;;;5.40;99.90;;;;;;5154253;27;20367;-73
2022/04/08 01:56:59;;;;;;;5.05;0.90;;;5.30;99.90;;;;;;5135218;27;20038;-73
2022/04/08 01:59:25;;;;;;;9.77;1.50;;;5.30;99.90;;;;;;5135747;27;20121;-73
2022/04/08 02:01:50;;;;;;;9.27;1.20;;;5.30;99.90;;;;;;5153685;27;20121;-73
2022/04/08 02:04:16;;;;;;;6.97;1.00;;;5.40;99.90;;;;;;5154005;27;20084;-73
2022/04/08 02:06:42;;;;;;;10.15;1.50;;;5.30;99.90;;;;;;5154149;27;20442;-73
2022/04/08 02:09:08;;;;;;;8.57;1.48;;;5.30;99.90;;;;;;5153636;27;20047;-73
2022/04/08 02:11:35;;;;;;;4.68;1.20;;;5.30;99.90;;;;;;5135724;27;20080;-73
2022/04/08 02:14:01;;;;;;;7.10;1.10;;;5.30;99.90;;;;;;5153579;27;20057;-73
2022/04/08 02:16:27;;;;;;;5.93;1.10;;;5.30;99.90;;;;;;5153907;27;20038;-73
2022/04/08 02:18:53;;;;;;;7.95;1.63;;;5.30;99.90;;;;;;5155231;27;20031;-73
2022/04/08 02:21:19;;;;;;;12.15;1.33;;;5.20;99.90;;;;;;5158094;27;20390;-73
2022/04/08 02:23:54;;;;;;;6.30;1.35;;;5.30;99.90;;;;;;5158080;27;20386;-73
2022/04/08 02:26:19;;;;;;;7.60;1.23;;;5.20;99.90;;;;;;5139909;27;20034;-73
2022/04/08 02:28:45;;;;;;;9.18;1.42;;;5.20;99.90;;;;;;5139477;27;20362;-73
2022/04/08 02:31:11;;;;;;;9.57;1.48;;;5.20;99.90;;;;;;5121616;27;20243;-73
2022/04/08 02:33:37;;;;;;;9.02;1.65;;;5.20;99.90;;;;;;5122357;27;20047;-73
2022/04/08 02:36:03;;;;;;;9.05;1.30;;;5.20;99.90;;;;;;5157250;27;20035;-74
2022/04/08 02:38:29;;;;;;;5.93;1.30;;;5.10;99.90;;;;;;5121836;27;20482;-73
2022/04/08 02:40:55;;;;;;;8.95;1.73;;;5.10;99.90;;;;;;5138650;27;20042;-73
2022/04/08 02:43:20;;;;;;;10.05;1.40;;;5.10;99.90;;;;;;5122240;27;20374;-73
2022/04/08 02:45:46;;;;;;;7.47;1.10;;;5.10;99.90;;;;;;5139166;27;20051;-73
2022/04/08 02:48:14;;;;;;;5.03;1.02;;;5.10;99.90;;;;;;5157015;27;20039;-72
2022/04/08 02:50:41;;;;;;;7.07;1.20;;;5.10;99.90;;;;;;5157388;27;20039;-73
2022/04/08 02:53:06;;;;;;;8.73;1.58;;;5.20;99.90;;;;;;5121245;27;20043;-73
2022/04/08 02:55:32;;;;;;;9.25;1.30;;;5.10;99.90;;;;;;5138964;27;20355;-73
2022/04/08 02:57:58;;;;;;;9.57;1.50;;;5.00;99.90;;;;;;5121250;27;20035;-73
2022/04/08 03:00:23;;;;;;;7.13;1.30;;;5.10;99.90;;;;;;5139045;27;20043;-72
2022/04/08 03:02:49;;;;;;;9.00;1.55;;;5.10;99.90;;;;;;5138878;27;20046;-72
2022/04/08 03:05:15;;;;;;;4.55;1.40;;;5.10;99.90;;;;;;5138303;27;20378;-72
2022/04/08 03:07:41;;;;;;;8.73;1.23;;;5.00;99.90;;;;;;5138711;27;20030;-72
2022/04/08 03:10:08;;;;;;;8.45;1.40;;;5.00;99.90;;;;;;5120953;27;20532;-73
2022/04/08 03:12:34;;;;;;;10.40;1.50;;;5.00;99.90;;;;;;5121648;27;20352;-74
2022/04/08 03:14:59;;;;;;;10.00;1.63;;;5.00;99.90;;;;;;5138216;27;20041;-73
2022/04/08 03:17:25;;;;;;;10.02;1.83;;;4.90;99.90;;;;;;5138478;27;20034;-72
2022/04/08 03:19:51;;;;;;;11.63;1.73;;;4.90;99.90;;;;;;5138387;27;20099;-72
2022/04/08 03:22:20;;;;;;;9.95;1.67;;;5.00;99.90;;;;;;5137923;27;20043;-73
2022/04/08 03:24:49;;;;;;;10.73;1.67;;;5.10;99.90;;;;;;5138321;27;20102;-72
2022/04/08 03:27:15;;;;;;;9.43;2.08;;;5.00;99.90;;;;;;5156317;27;20074;-72
2022/04/08 03:29:40;;;;;;;13.15;2.40;;;5.00;99.90;;;;;;5156241;27;20351;-73
2022/04/08 03:32:06;;;;;;;14.88;1.92;;;5.00;99.90;;;;;;5137626;27;20038;-73
2022/04/08 03:34:32;;;;;;;11.68;1.90;;;4.90;99.90;;;;;;5156589;27;20077;-73
2022/04/08 03:36:58;;;;;;;15.77;2.47;;;4.90;99.90;;;;;;5156293;27;20042;-73
2022/04/08 03:39:24;;;;;;;10.90;1.70;;;4.90;99.90;;;;;;5156121;27;20098;-72
2022/04/08 03:41:49;;;;;;;17.13;2.10;;;4.80;99.90;;;;;;5137972;27;20135;-72
2022/04/08 03:44:15;;;;;;;12.55;2.45;;;4.90;99.90;;;;;;5155880;27;20046;-73
2022/04/08 03:46:41;;;;;;;13.32;2.33;;;4.90;99.90;;;;;;5156326;27;20035;-72
2022/04/08 03:49:14;;;;;;;10.90;2.00;;;5.00;99.90;;;;;;5155591;27;20046;-73
2022/04/08 03:51:40;;;;;;;7.00;1.42;;;5.00;99.90;;;;;;5156279;27;20035;-73
2022/04/08 03:54:07;;;;;;;7.68;1.10;;;5.00;99.90;;;;;;5137291;27;20049;-73
2022/04/08 03:56:33;;;;;;;3.17;0.73;;;4.90;99.90;;;;;;5120916;27;20049;-73
2022/04/08 03:58:59;;;;;;;5.22;0.77;;;4.70;99.90;;;;;;5156108;27;20370;-72
2022/04/08 04:01:24;;;;;;;3.47;0.90;;;4.60;99.90;;;;;;5155639;27;20095;-72
2022/04/08 04:03:50;;;;;;;3.83;0.70;;;4.60;99.90;;;;;;5120821;27;20047;-72
2022/04/08 04:06:16;;;;;;;3.60;0.90;;;4.50;99.90;;;;;;5137444;27;20451;-73
2022/04/08 04:08:41;;;;;;;3.28;1.00;;;4.50;99.90;;;;;;5156093;27;20047;-73
2022/04/08 04:11:07;;;;;;;1.25;0.70;;;4.50;99.90;;;;;;5155434;27;20057;-73
2022/04/08 04:13:32;;;;;;;2.90;0.75;;;4.40;99.90;;;;;;5155987;27;20488;-73
2022/04/08 04:15:59;;;;;;;2.97;0.60;;;4.40;99.90;;;;;;5120578;27;20043;-73
2022/04/08 04:18:26;;;;;;;4.15;1.00;;;4.40;99.90;;;;;;5137130;27;20393;-72
2022/04/08 04:20:52;;;;;;;5.35;0.88;;;4.30;99.90;;;;;;5155701;27;20047;-72
2022/04/08 04:23:18;;;;;;;1.20;0.63;;;4.20;99.90;;;;;;5136899;27;20046;-73
2022/04/08 04:25:43;;;;;;;3.70;0.95;;;4.20;99.90;;;;;;5137253;27;20042;-73
2022/04/08 04:28:09;;;;;;;3.65;0.98;;;4.20;99.90;;;;;;5136829;27;20057;-73
2022/04/08 04:30:35;;;;;;;1.80;0.90;;;4.10;99.90;;;;;;5137234;27;20366;-73
2022/04/08 04:33:01;;;;;;;2.67;0.90;;;4.10;99.90;;;;;;5155482;27;20034;-72
2022/04/08 04:35:27;;;;;;;2.67;0.77;;;4.10;99.90;;;;;;5136817;27;20042;-73
2022/04/08 04:37:53;;;;;;;1.90;0.80;;;4.10;99.90;;;;;;5155187;27;20054;-73
2022/04/08 04:40:18;;;;;;;3.10;0.90;;;4.10;99.90;;;;;;5154861;27;20046;-73
2022/04/08 04:42:44;;;;;;;2.17;0.80;;;4.10;99.90;;;;;;5102218;27;20539;-73
2022/04/08 04:45:11;;;;;;;3.10;0.93;;;4.10;99.90;;;;;;5155376;27;20042;-73
2022/04/08 04:47:36;;;;;;;2.92;0.70;;;4.00;99.90;;;;;;5155419;27;20049;-74
2022/04/08 04:50:02;;;;;;;2.42;0.82;;;4.10;99.90;;;;;;5136745;27;20042;-75
2022/04/08 04:52:27;;;;;;;4.75;1.10;;;4.00;99.90;;;;;;5154805;27;20078;-73
2022/04/08 04:54:53;;;;;;;2.55;1.02;;;4.00;99.90;;;;;;5154861;27;20434;-73
2022/04/08 04:57:19;;;;;;;3.17;0.82;;;4.00;99.90;;;;;;5154302;27;20117;-73
2022/04/08 04:59:44;;;;;;;4.78;1.08;;;4.00;99.90;;;;;;5136842;27;20035;-73
2022/04/08 05:02:10;;;;;;;4.40;1.10;;;4.00;99.90;;;;;;5154991;27;20046;-73
2022/04/08 05:04:36;;;;;;;6.45;1.33;;;4.10;99.90;;;;;;5154542;27;20039;-74
2022/04/08 05:07:01;;;;;;;3.15;1.00;;;4.20;99.90;;;;;;5154978;27;20045;-74
2022/04/08 05:09:27;;;;;;;5.70;1.40;;;4.10;99.90;;;;;;5154514;27;20045;-73
2022/04/08 05:11:52;;;;;;;5.03;1.30;;;4.20;99.90;;;;;;5136502;27;20034;-73
2022/04/08 05:14:22;;;;;;;4.10;1.30;;;4.30;99.90;;;;;;5154349;27;20498;-73
2022/04/08 05:16:49;;;;;;;5.82;1.55;;;4.30;99.90;;;;;;5154721;27;20039;-73
2022/04/08 05:19:15;;;;;;;7.50;1.50;;;4.40;99.90;;;;;;5136468;27;20377;-73
2022/04/08 05:21:40;;;;;;;4.35;1.10;;;4.50;99.90;;;;;;5135915;27;20049;-73
2022/04/08 05:24:06;;;;;;;5.50;1.20;;;4.50;99.90;;;;;;5136379;27;20137;-73
2022/04/08 05:26:31;;;;;;;5.30;1.23;;;4.50;99.90;;;;;;5136035;27;20038;-74
2022/04/08 05:28:57;;;;;;;4.38;1.40;;;4.60;99.90;;;;;;5154721;27;20085;-73
2022/04/08 05:31:23;;;;;;;7.13;1.38;;;4.50;99.90;;;;;;5154118;27;20035;-73
2022/04/08 05:33:48;;;;;;;5.65;1.60;;;4.60;99.90;;;;;;5154487;27;20043;-73
2022/04/08 05:36:14;;;;;;;7.25;1.65;;;4.60;99.90;;;;;;5136026;27;20066;-73
2022/04/08 05:38:40;;;;;;;4.43;1.20;;;4.60;99.90;;;;;;5153711;27;20069;-74
2022/04/08 05:41:05;;;;;;;4.95;1.38;;;4.60;99.90;;;;;;5154426;27;20046;-74
2022/04/08 05:43:31;;;;;;;5.57;1.30;;;4.60;99.90;;;;;;5135305;27;20390;-74
2022/04/08 05:45:56;;;;;;;7.13;1.88;;;4.60;99.90;;;;;;5136054;27;20039;-74
2022/04/08 05:48:23;;;;;;;7.18;1.73;;;4.60;99.90;;;;;;5153978;27;20043;-74
2022/04/08 05:50:48;;;;;;;5.70;1.65;;;4.60;99.90;;;;;;5154469;27;20058;-75
2022/04/08 05:53:14;;;;;;;6.72;1.60;;;4.50;99.90;;;;;;5138451;27;20378;-75
2022/04/08 05:55:40;;;;;;;4.15;1.50;;;4.60;99.90;;;;;;5139832;27;20043;-76
2022/04/08 05:58:05;;;;;;;3.53;1.38;;;4.60;99.90;;;;;;5123213;27;20054;-75
2022/04/08 06:00:34;;;;;;;5.60;1.35;;;4.60;99.90;;;;;;5139934;27;20121;-77
2022/04/08 06:02:59;;;;;;;3.70;1.55;;;4.70;99.90;;;;;;5158684;27;20038;-76
2022/04/08 06:05:25;;;;;;;6.55;1.52;;;4.70;99.90;;;;;;5158295;27;20102;-76
2022/04/08 06:07:52;;;;;;;6.13;1.38;;;4.70;99.90;;;;;;5122992;27;20039;-73
2022/04/08 06:10:18;;;;;;;5.78;1.13;;;4.80;99.90;;;;;;5139904;27;20420;-76
2022/04/08 06:12:48;;;;;;;3.83;1.30;;;4.90;99.90;;;;;;5139721;27;20455;-75
2022/04/08 06:15:14;;;;;;;5.25;1.60;;;4.80;99.90;;;;;;5123108;27;20046;-75
2022/04/08 06:17:39;;;;;;;3.30;1.10;;;4.80;99.90;;;;;;5139369;27;20366;-75
2022/04/08 06:20:06;;;;;;;3.92;1.15;;;4.80;99.90;;;;;;5139885;27;20045;-75
2022/04/08 06:22:32;;;;;;;4.15;1.15;;;4.80;99.90;;;;;;5105287;27;20530;-76
2022/04/08 06:24:57;;;;;;;3.05;1.02;;;4.70;99.90;;;;;;5158196;27;20117;-75
2022/04/08 06:27:23;;;;;;;4.07;1.33;;;4.80;99.90;;;;;;5122720;27;20481;-74
2022/04/08 06:29:48;;;;;;;5.72;1.60;;;4.80;99.90;;;;;;5139152;27;20053;-74
2022/04/08 06:32:14;;;;;;;6.00;1.23;;;4.80;99.90;;;;;;5139566;27;20462;-73
2022/04/08 06:34:40;;;;;;;4.22;1.38;;;4.90;99.90;;;;;;5157439;27;20131;-74
2022/04/08 06:37:05;;;;;;;6.95;1.45;;;5.10;99.90;;;;;;5157682;27;20049;-74
2022/04/08 06:39:31;;;;;;;4.03;1.60;;;5.10;99.90;;;;;;5157498;27;20125;-74
2022/04/08 06:41:57;;;;;;;3.63;1.23;;;5.20;99.90;;;;;;5139520;27;20034;-74
2022/04/08 06:44:23;;;;;;;3.65;1.23;;;5.30;99.90;;;;;;5157795;27;20043;-74
2022/04/08 06:46:49;;;;;;;4.05;1.20;;;5.30;99.90;;;;;;5121891;27;20068;-75
2022/04/08 06:49:14;;;;;;;7.65;1.40;;;5.30;99.90;;;;;;5139244;27;20046;-75
2022/04/08 06:51:40;;;;;;;2.88;1.30;;;5.40;99.90;;;;;;5157117;27;20037;-75
2022/04/08 06:54:06;;;;;;;4.05;1.48;;;5.40;99.90;;;;;;5157497;27;20046;-76
2022/04/08 06:56:31;;;;;;;4.55;1.42;;;5.40;99.90;;;;;;5157042;27;20485;-77
2022/04/08 06:58:57;;;;;;;5.75;1.40;;;5.40;99.90;;;;;;5139070;27;20039;-75
2022/04/08 07:01:25;;;;;;;2.78;1.30;;;5.40;99.90;;;;;;5157083;27;20045;-73
2022/04/08 07:03:51;;;;;;;2.92;1.30;;;5.40;99.90;;;;;;5156177;27;20447;-72
2022/04/08 07:06:16;;;;;;;4.57;1.45;;;5.40;99.90;;;;;;5157332;27;20121;-73
2022/04/08 07:08:42;;;;;;;3.92;1.30;;;5.50;99.90;;;;;;5138398;27;20091;-73
2022/04/08 07:11:07;;;;;;;4.85;1.40;;;5.80;99.90;;;;;;5121876;27;20042;-73
2022/04/08 07:13:33;;;;;;;3.17;0.95;;;5.90;99.90;;;;;;5138283;27;20091;-73
2022/04/08 07:15:59;;;;;;;7.07;1.30;;;5.90;99.90;;;;;;5156963;27;20095;-72
2022/04/08 07:18:25;;;;;;;3.80;1.15;;;5.90;99.90;;;;;;5121690;27;20049;-73
2022/04/08 07:20:51;;;;;;;3.40;1.25;;;5.80;99.90;;;;;;5156630;27;20125;-73
2022/04/08 07:23:16;;;;;;;3.72;1.10;;;5.70;99.90;;;;;;5138461;27;20046;-73
2022/04/08 07:25:43;;;;;;;5.63;1.40;;;5.70;99.90;;;;;;5156499;27;20374;-73
2022/04/08 07:28:09;;;;;;;5.57;1.17;;;5.60;99.90;;;;;;5156952;27;20038;-73
2022/04/08 07:30:35;;;;;;;4.50;1.35;;;5.60;99.90;;;;;;5156679;27;20053;-77
2022/04/08 07:33:01;;;;;;;6.18;1.30;;;5.70;99.90;;;;;;5121416;27;20378;-74
2022/04/08 07:35:28;;;;;;;6.85;1.23;;;5.80;99.90;;;;;;5138442;27;20038;-76
2022/04/08 07:37:54;;;;;;;4.57;1.20;;;5.90;99.90;;;;;;5137277;27;20079;-73
2022/04/08 07:40:20;;;;;;;3.03;1.20;;;6.00;99.90;;;;;;5138145;27;20046;-74
2022/04/08 07:42:45;;;;;;;5.97;1.92;;;6.10;99.90;;;;;;5156187;27;20050;-74
2022/04/08 07:45:11;;;;;;;6.22;1.92;;;6.10;99.90;;;;;;5156594;27;20043;-74
2022/04/08 07:47:37;;;;;;;4.90;1.63;;;6.10;99.90;;;;;;5156078;27;20079;-78
2022/04/08 07:50:04;;;;;;;9.65;2.08;;;6.00;99.90;;;;;;5156457;27;20532;-75
2022/04/08 07:52:30;;;;;;;7.82;1.60;;;6.10;99.90;;;;;;5137975;27;20478;-74
2022/04/08 07:54:55;;;;;;;3.97;1.48;;;6.10;99.90;;;;;;5137688;27;20042;-74
2022/04/08 07:57:21;;;;;;;6.93;1.73;;;6.10;99.90;;;;;;5137843;27;20037;-73
2022/04/08 07:59:47;;;;;;;6.30;1.60;;;6.10;99.90;;;;;;5155789;27;20046;-74
2022/04/08 08:02:13;;;;;;;7.43;1.60;;;6.20;99.90;;;;;;5137715;27;20115;-74
2022/04/08 08:04:39;;;;;;;3.80;1.40;;;6.20;99.90;;;;;;5137846;27;20046;-78
2022/04/08 08:07:04;;;;;;;7.50;1.50;;;6.20;99.90;;;;;;5156140;27;20038;-74
2022/04/08 08:09:30;;;;;;;4.78;1.40;;;6.30;99.90;;;;;;5155912;27;20440;-74
2022/04/08 08:11:56;;;;;;;3.85;1.20;;;6.30;99.90;;;;;;5137287;27;20046;-74
2022/04/08 08:14:21;;;;;;;4.60;1.23;;;6.40;99.90;;;;;;5120564;27;20046;-74
2022/04/08 08:16:47;;;;;;;6.30;1.45;;;6.50;99.90;;;;;;5154152;27;20071;-75
2022/04/08 08:19:13;;;;;;;7.65;1.95;;;6.50;99.90;;;;;;5155925;27;20130;-75
2022/04/08 08:21:39;;;;;;;9.18;1.90;;;6.60;99.90;;;;;;5137514;27;20435;-74
2022/04/08 08:24:05;;;;;;;8.55;1.20;;;6.60;99.90;;;;;;5155139;27;20046;-74
2022/04/08 08:26:31;;;;;;;5.40;1.50;;;6.70;99.90;;;;;;5137439;27;20118;-73
2022/04/08 08:28:56;;;;;;;5.13;1.10;;;6.80;99.90;;;;;;5155272;27;20382;-74
2022/04/08 08:31:22;;;;;;;4.65;1.30;;;6.90;99.90;;;;;;5120216;27;20418;-74
2022/04/08 08:33:49;;;;;;;3.53;1.13;;;6.90;99.90;;;;;;5136675;27;20039;-74
2022/04/08 08:36:15;;;;;;;6.28;1.40;;;7.00;99.90;;;;;;5155479;27;20103;-74
2022/04/08 08:38:41;;;;;;;2.08;0.80;;;7.10;99.90;;;;;;5136871;27;20415;-74
2022/04/08 08:41:08;;;;;;;3.65;1.20;;;7.20;99.90;;;;;;5154948;27;20062;-74
2022/04/08 08:43:33;;;;;;;6.53;1.27;;;7.20;99.90;;;;;;5120019;27;20035;-74
2022/04/08 08:45:59;;;;;;;3.35;0.90;;;7.40;99.90;;;;;;5154620;27;20125;-74
2022/04/08 08:48:25;;;;;;;2.67;0.98;;;7.40;99.90;;;;;;5119794;27;20042;-74
2022/04/08 08:50:54;;;;;;;4.32;1.40;;;7.40;99.90;;;;;;5154777;27;20038;-74
2022/04/08 08:53:20;;;;;;;3.85;0.90;;;7.40;99.90;;;;;;5155251;27;20054;-74
2022/04/08 08:55:49;;;;;;;6.75;1.20;;;7.40;99.90;;;;;;5155017;27;20378;-73
2022/04/08 08:58:15;;;;;;;6.05;1.35;;;7.40;99.90;;;;;;5119844;27;20062;-74
2022/04/08 09:00:41;;;;;;;3.45;1.05;;;7.40;99.90;;;;;;5119774;27;20049;-75
2022/04/08 09:03:09;;;;;;;4.35;1.13;;;7.40;99.90;;;;;;5136415;27;20647;-74
2022/04/08 09:05:42;;;;;;;6.85;1.65;;;7.40;99.90;;;;;;5136946;27;20054;-74
2022/04/08 09:08:08;;;;;;;6.55;1.48;;;7.40;99.90;;;;;;5102232;27;20042;-74
2022/04/08 09:10:39;;;;;;;5.80;1.40;;;7.40;99.90;;;;;;5154937;27;20378;-74
2022/04/08 09:13:05;;;;;;;6.80;1.70;;;7.30;99.90;;;;;;5119188;27;20048;-74
2022/04/08 09:15:33;;;;;;;7.00;1.65;;;7.30;99.90;;;;;;5119111;27;20042;-74
2022/04/08 09:18:06;;;;;;;7.28;1.90;;;7.30;99.90;;;;;;5153797;27;20046;-74
2022/04/08 09:20:45;;;;;;;3.53;1.58;;;7.50;99.90;;;;;;5154615;27;20099;-74
2022/04/08 09:23:12;;;;;;;7.20;1.50;;;7.60;99.90;;;;;;5136871;27;20047;-74
2022/04/08 09:25:39;;;;;;;4.90;1.73;;;7.70;99.90;;;;;;5154566;27;20051;-74
2022/04/08 09:28:09;;;;;;;6.40;1.83;;;7.70;99.90;;;;;;5101607;27;20054;-75
2022/04/08 09:30:35;;;;;;;7.50;1.70;;;7.90;99.90;;;;;;5119221;27;20050;-74
2022/04/08 09:33:11;;;;;;;8.95;1.90;;;7.90;99.90;;;;;;5135640;27;20042;-74
2022/04/08 09:35:40;;;;;;;5.70;1.58;;;8.00;99.90;;;;;;5154479;27;20106;-74
2022/04/08 09:38:07;;;;;;;5.65;1.70;;;8.10;99.90;;;;;;5153379;27;20082;-74
2022/04/08 09:40:40;;;;;;;7.13;1.70;;;8.10;99.90;;;;;;5136211;27;20075;-74
2022/04/08 09:43:06;;;;;;;6.70;1.60;;;8.20;99.90;;;;;;5136129;27;20440;-74
2022/04/08 09:45:32;;;;;;;6.88;1.45;;;8.20;99.90;;;;;;5119181;27;20124;-75
2022/04/08 09:48:05;;;;;;;6.90;2.05;;;8.30;99.90;;;;;;5135619;27;20086;-74
2022/04/08 09:50:31;;;;;;;6.72;1.88;;;8.40;99.90;;;;;;5135890;27;20042;-74
2022/04/08 09:52:56;;;;;;;7.35;1.80;;;8.40;99.90;;;;;;5135633;27;20054;-74
2022/04/08 09:55:23;;;;;;;4.85;1.20;;;8.50;99.90;;;;;;5118934;27;20042;-74
2022/04/08 09:57:54;;;;;;;6.28;1.40;;;8.60;99.90;;;;;;5102077;27;20047;-74
2022/04/08 10:00:19;;;;;;;6.40;1.90;;;8.70;99.90;;;;;;5118936;27;20046;-74
2022/04/08 10:02:46;;;;;;;3.58;1.10;;;8.80;99.90;;;;;;5154228;27;20072;-74
2022/04/08 10:05:11;;;;;;;8.40;1.00;;;8.70;99.90;;;;;;5101427;27;20047;-74
2022/04/08 10:07:38;;;;;;;7.93;1.77;;;8.70;99.90;;;;;;5154329;27;20115;-74
2022/04/08 10:10:11;;;;;;;7.43;1.25;;;8.70;99.90;;;;;;5118434;27;20537;-74
2022/04/08 10:13:10;;;;;;;5.68;1.20;;;8.60;99.90;;;;;;5135961;27;20071;-74
2022/04/08 10:15:42;;;;;;;5.82;1.50;;;8.70;99.90;;;;;;5135865;27;20432;-73
2022/04/08 10:18:08;;;;;;;7.63;1.50;;;8.80;99.90;;;;;;5118252;27;20051;-74
2022/04/08 10:20:34;;;;;;;7.22;1.35;;;8.80;99.90;;;;;;5118779;27;20039;-74
2022/04/08 10:23:11;;;;;;;6.57;1.40;;;8.80;99.90;;;;;;5118328;27;20085;-74
2022/04/08 10:25:43;;;;;;;5.25;1.40;;;9.00;99.90;;;;;;5136146;27;20050;-74
2022/04/08 10:28:10;;;;;;;7.78;1.65;;;9.10;99.90;;;;;;5117920;27;20085;-74
2022/04/08 10:30:49;;;;;;;5.82;1.40;;;9.10;99.90;;;;;;5118562;27;20085;-74
2022/04/08 10:33:25;;;;;;;6.55;1.48;;;9.20;99.90;;;;;;5118038;27;20089;-74
2022/04/08 10:35:55;;;;;;;8.50;1.77;;;9.20;99.90;;;;;;5135395;27;20095;-74
2022/04/08 10:38:21;;;;;;;7.20;1.85;;;9.10;99.90;;;;;;5153045;27;20216;-74
2022/04/08 10:40:54;;;;;;;8.57;1.70;;;9.20;99.90;;;;;;5156953;27;20043;-74
2022/04/08 10:43:19;;;;;;;8.65;1.80;;;9.30;99.90;;;;;;5138667;27;20390;-74
2022/04/08 10:45:58;;;;;;;4.90;1.45;;;9.40;99.90;;;;;;5122301;27;20047;-74
2022/04/08 10:48:33;;;;;;;7.03;1.48;;;9.50;99.90;;;;;;5138712;27;20102;-74
2022/04/08 10:51:13;;;;;;;6.68;1.63;;;9.60;99.90;;;;;;5139300;27;20095;-74
2022/04/08 10:53:42;;;;;;;8.23;1.70;;;9.60;99.90;;;;;;5139281;27;20047;-74
2022/04/08 10:56:13;;;;;;;4.18;1.20;;;9.60;99.90;;;;;;5156854;27;20051;-74
2022/04/08 10:58:46;;;;;;;5.43;1.42;;;9.60;99.90;;;;;;5122245;27;20104;-74
2022/04/08 11:01:18;;;;;;;5.32;1.23;;;9.70;99.90;;;;;;5121422;27;20111;-74
2022/04/08 11:03:48;;;;;;;5.25;1.25;;;9.70;99.90;;;;;;5157356;27;20129;-74
2022/04/08 11:06:15;;;;;;;4.95;0.90;;;9.70;99.90;;;;;;5139282;27;20394;-74
2022/04/08 11:08:40;;;;;;;5.65;1.10;;;9.70;99.90;;;;;;5157222;27;20042;-75
2022/04/08 11:11:07;;;;;;;4.13;0.82;;;9.70;99.90;;;;;;5138370;27;20045;-76
2022/04/08 11:13:32;;;;;;;3.33;0.90;;;9.60;99.90;;;;;;5104802;27;20410;-75
2022/04/08 11:15:58;;;;;;;3.35;0.95;;;9.60;99.90;;;;;;5157114;27;20038;-75
2022/04/08 11:18:27;;;;;;;6.88;1.00;;;9.50;99.90;;;;;;5156529;27;20100;-75
2022/04/08 11:20:52;;;;;;;5.75;1.00;;;9.50;99.90;;;;;;5138599;27;20042;-75
2022/04/08 11:23:28;;;;;;;7.70;1.17;;;9.30;99.90;;;;;;5156442;27;20054;-75
2022/04/08 11:25:54;;;;;;;6.55;1.05;;;9.30;99.90;;;;;;5156881;27;20057;-75
2022/04/08 11:28:23;;;;;;;6.00;0.90;;;9.30;99.90;;;;;;5121040;27;20056;-75
2022/04/08 11:30:54;;;;;;;4.93;1.10;;;9.30;99.90;;;;;;5121493;27;20100;-75
2022/04/08 11:33:20;;;;;;;4.45;0.85;;;9.40;99.90;;;;;;5120934;27;20050;-75
2022/04/08 11:35:46;;;;;;;8.15;1.25;;;9.50;99.90;;;;;;5156409;27;20505;-75
2022/04/08 11:38:16;;;;;;;4.20;1.13;;;9.60;99.90;;;;;;5156088;27;20050;-76
2022/04/08 11:40:42;;;;;;;5.60;1.10;;;9.60;99.90;;;;;;5121128;27;20086;-75
2022/04/08 11:43:11;;;;;;;6.78;0.98;;;9.70;99.90;;;;;;5156596;27;20069;-75
2022/04/08 11:45:37;;;;;;;7.38;1.10;;;9.70;99.90;;;;;;5121366;27;20115;-75
2022/04/08 11:48:05;;;;;;;7.95;1.10;;;9.80;99.90;;;;;;5156381;27;20053;-75
2022/04/08 11:50:32;;;;;;;4.72;1.00;;;9.80;99.90;;;;;;5137408;27;20054;-76
2022/04/08 11:52:58;;;;;;;2.33;0.75;;;9.80;99.90;;;;;;5121344;27;20126;-75
2022/04/08 11:55:27;;;;;;;4.40;1.10;;;9.80;99.90;;;;;;5120335;27;20469;-75
2022/04/08 11:57:53;;;;;;;4.22;1.08;;;9.80;99.90;;;;;;5120740;27;20077;-75
2022/04/08 12:00:27;;;;;;;5.43;1.30;;;9.90;99.90;;;;;;5137459;27;20419;-75
2022/04/08 12:02:56;;;;;;;6.38;1.10;;;9.90;99.90;;;;;;5156143;27;20115;-75
2022/04/08 12:05:24;;;;;;;8.25;1.52;;;10.00;99.90;;;;;;5136954;27;20490;-75
2022/04/08 12:07:51;;;;;;;6.45;1.15;;;10.00;99.90;;;;;;5156092;27;20122;-75
2022/04/08 12:10:18;;;;;;;9.65;1.10;;;10.00;99.90;;;;;;5155192;27;20486;-75
2022/04/08 12:12:47;;;;;;;5.53;1.10;;;10.10;99.90;;;;;;5155948;27;20043;-75
2022/04/08 12:15:13;;;;;;;6.85;1.30;;;10.20;99.90;;;;;;5137805;27;20050;-75
2022/04/08 12:17:43;;;;;;;3.38;0.93;;;10.20;99.90;;;;;;5136641;27;20082;-75
2022/04/08 12:20:16;;;;;;;;;;;10.10;99.90;;;;;;5138124;27;20043;-75
2022/04/08 12:22:44;;;;;;;1.48;0.68;;;10.00;99.40;;;;;;5137348;27;19926;-75
2022/04/08 12:25:11;;;;;;;5.35;0.90;;;9.90;99.90;;;;;;5120634;27;20043;-75
2022/04/08 12:27:37;;;;;;;4.78;1.10;;;10.00;99.90;;;;;;5136778;27;20047;-75
2022/04/08 12:30:11;;;;;;;7.78;1.10;;;9.90;99.90;;;;;;5155606;27;20088;-75
2022/04/08 12:32:43;;;;;;;2.33;0.98;;;10.00;99.90;;;;;;5136975;27;20065;-75
2022/04/08 12:35:10;;;;;;;5.25;1.10;;;10.00;99.90;;;;;;5120747;27;20039;-75
2022/04/08 12:37:36;;;;;;;5.40;1.00;;;10.00;99.90;;;;;;5136766;27;20104;-75
2022/04/08 12:40:23;;;;;;;5.78;1.05;;;10.00;98.80;;;;;;5119951;27;20078;-76
2022/04/08 12:42:48;;;;;;;6.32;1.30;;;10.00;98.60;;;;;;5140113;27;20043;-75
2022/04/08 12:45:15;;;;;;;5.95;1.10;;;9.90;98.30;;;;;;5136780;27;20497;-75
2022/04/08 12:47:41;;;;;;;5.05;1.30;;;9.90;98.90;;;;;;5154736;27;20038;-75
2022/04/08 12:50:08;;;;;;;5.30;1.02;;;9.90;98.70;;;;;;5136996;27;20367;-75
2022/04/08 12:52:33;;;;;;;8.13;1.20;;;9.80;98.40;;;;;;5154766;27;20136;-75